Time;durP1;ratioP1;P1;durP2;ratioP2;P2;SDS_P1;SDS_P2;PMS_P1;PMS_P2;Temp;Humidity;BMP_temperature;BMP_pressure;BME280_temperature;BME280_humidity;BME280_pressure;Samples;Min_cycle;Max_cycle;Signal;HPM_P1;HPM_P2
2021/07/12 00:00:45;;;;;;;34.07;26.63;;;17.60;99.90;;;;;;4373883;32;20228;-63
2021/07/12 00:03:13;;;;;;;35.57;26.03;;;17.60;99.90;;;;;;4362898;32;20168;-63
2021/07/12 00:05:41;;;;;;;36.30;26.97;;;17.60;99.90;;;;;;4366340;32;20196;-64
2021/07/12 00:08:08;;;;;;;33.57;26.23;;;17.60;99.90;;;;;;4375855;32;20144;-65
2021/07/12 00:10:35;;;;;;;35.10;25.90;;;17.50;99.90;;;;;;4374574;32;20283;-63
2021/07/12 00:13:02;;;;;;;38.23;27.83;;;17.50;99.90;;;;;;4375492;32;20206;-65
2021/07/12 00:15:30;;;;;;;37.37;28.13;;;17.50;99.90;;;;;;4373893;32;20164;-62
2021/07/12 00:17:58;;;;;;;36.20;27.07;;;17.40;99.90;;;;;;4375941;32;20164;-63
2021/07/12 00:20:29;;;;;;;35.53;27.83;;;17.40;99.90;;;;;;4375796;32;20179;-64
2021/07/12 00:22:57;;;;;;;37.73;27.23;;;17.30;99.90;;;;;;4364905;32;20545;-62
2021/07/12 00:25:25;;;;;;;35.17;26.60;;;17.30;99.90;;;;;;4373546;32;20219;-63
2021/07/12 00:27:52;;;;;;;36.70;26.93;;;17.30;99.90;;;;;;4374956;32;20156;-63
2021/07/12 00:30:21;;;;;;;37.63;28.33;;;17.30;99.90;;;;;;4375217;32;20164;-63
2021/07/12 00:32:50;;;;;;;36.57;27.00;;;17.30;99.90;;;;;;4365817;32;20526;-64
2021/07/12 00:35:18;;;;;;;36.80;27.13;;;17.30;99.90;;;;;;4360666;33;20591;-64
2021/07/12 00:37:46;;;;;;;33.33;25.27;;;17.20;99.90;;;;;;4371827;32;20175;-63
2021/07/12 00:40:17;;;;;;;32.67;25.87;;;17.20;99.90;;;;;;4375887;32;20163;-64
2021/07/12 00:42:44;;;;;;;38.67;28.97;;;17.20;99.90;;;;;;4367612;32;20174;-63
2021/07/12 00:45:13;;;;;;;33.40;26.63;;;17.20;99.90;;;;;;4360629;32;20240;-64
2021/07/12 00:47:40;;;;;;;38.90;28.77;;;17.20;99.90;;;;;;4370013;32;20216;-64
2021/07/12 00:50:10;;;;;;;35.93;27.53;;;17.20;99.90;;;;;;4376546;32;20171;-62
2021/07/12 00:52:37;;;;;;;37.77;28.63;;;17.10;99.90;;;;;;4373346;32;20190;-63
2021/07/12 00:55:15;;;;;;;35.23;26.57;;;17.10;99.90;;;;;;4371063;32;20152;-62
2021/07/12 00:57:42;;;;;;;40.83;27.73;;;17.10;99.90;;;;;;4375039;32;20152;-62
2021/07/12 01:00:11;;;;;;;36.27;28.13;;;17.10;99.90;;;;;;4375092;32;20152;-61
2021/07/12 01:02:38;;;;;;;38.97;27.73;;;17.00;99.90;;;;;;4372041;32;20152;-63
2021/07/12 01:05:08;;;;;;;37.30;28.77;;;17.00;99.90;;;;;;4364074;32;20589;-62
2021/07/12 01:07:36;;;;;;;37.77;29.67;;;17.00;99.90;;;;;;4376539;32;20163;-62
2021/07/12 01:10:05;;;;;;;46.17;30.40;;;17.00;99.90;;;;;;4374939;32;20171;-63
2021/07/12 01:12:40;;;;;;;37.93;28.93;;;17.00;99.90;;;;;;4374336;32;20196;-63
2021/07/12 01:15:10;;;;;;;45.27;29.97;;;17.00;99.90;;;;;;4361333;32;20178;-63
2021/07/12 01:17:49;;;;;;;44.13;31.37;;;16.90;99.90;;;;;;4375130;32;20224;-64
2021/07/12 01:20:36;;;;;;;41.13;31.20;;;16.90;99.90;;;;;;4374776;32;20362;-63
2021/07/12 01:23:19;;;;;;;41.90;29.93;;;16.90;99.90;;;;;;4371968;32;20550;-63
2021/07/12 01:26:22;;;;;;;39.90;30.40;;;16.90;99.90;;;;;;4373564;32;20156;-62
2021/07/12 01:29:21;;;;;;;41.50;29.87;;;16.90;99.90;;;;;;4363582;32;20156;-63
2021/07/12 01:32:18;;;;;;;44.87;31.87;;;16.80;99.90;;;;;;4358458;32;20165;-64
2021/07/12 01:34:55;;;;;;;43.97;31.63;;;16.80;99.90;;;;;;4364127;32;21328;-62
2021/07/12 01:37:29;;;;;;;40.77;30.60;;;16.80;99.90;;;;;;4367404;32;20144;-62
2021/07/12 01:40:03;;;;;;;45.73;32.47;;;16.80;99.90;;;;;;4372613;32;20186;-64
2021/07/12 01:42:40;;;;;;;45.23;31.93;;;16.80;99.90;;;;;;4379306;32;20235;-64
2021/07/12 01:45:11;;;;;;;47.50;34.57;;;16.70;99.90;;;;;;4365752;32;20179;-63
2021/07/12 01:47:49;;;;;;;46.07;33.57;;;16.70;99.90;;;;;;4374080;32;20204;-62
2021/07/12 01:50:27;;;;;;;45.27;33.27;;;16.70;99.90;;;;;;4377978;32;20174;-63
2021/07/12 01:53:04;;;;;;;44.37;32.50;;;16.60;99.90;;;;;;4377817;32;20212;-64
2021/07/12 01:55:38;;;;;;;45.47;32.40;;;16.60;99.90;;;;;;4364543;32;20228;-63
2021/07/12 01:58:11;;;;;;;45.73;33.97;;;16.70;99.90;;;;;;4375365;32;20186;-63
2021/07/12 02:00:41;;;;;;;51.17;35.67;;;16.60;99.90;;;;;;4377879;32;20179;-62
2021/07/12 02:03:10;;;;;;;46.53;33.57;;;16.60;99.90;;;;;;4377641;32;20194;-64
2021/07/12 02:05:40;;;;;;;51.03;35.10;;;16.60;99.90;;;;;;4376489;32;20198;-64
2021/07/12 02:08:09;;;;;;;45.07;32.77;;;16.60;99.90;;;;;;4377257;32;20182;-64
2021/07/12 02:10:38;;;;;;;48.97;34.90;;;16.60;99.90;;;;;;4377562;32;20208;-64
2021/07/12 02:13:06;;;;;;;49.53;34.10;;;16.60;99.90;;;;;;4379085;32;20152;-63
2021/07/12 02:15:35;;;;;;;45.97;34.27;;;16.60;99.90;;;;;;4373051;32;20214;-64
2021/07/12 02:18:03;;;;;;;47.77;35.13;;;16.60;99.90;;;;;;4377508;32;20180;-63
2021/07/12 02:20:32;;;;;;;54.80;39.07;;;16.70;99.90;;;;;;4378344;32;20176;-63
2021/07/12 02:23:03;;;;;;;54.40;38.13;;;16.60;99.90;;;;;;4377700;32;20182;-63
2021/07/12 02:25:31;;;;;;;46.37;34.97;;;16.60;99.90;;;;;;4374268;32;20149;-63
2021/07/12 02:27:59;;;;;;;52.93;37.63;;;16.60;99.90;;;;;;4377313;32;20237;-62
2021/07/12 02:30:30;;;;;;;56.10;38.93;;;16.60;99.90;;;;;;4377349;32;20627;-63
2021/07/12 02:32:57;;;;;;;55.43;40.13;;;16.60;99.90;;;;;;4378965;32;20160;-64
2021/07/12 02:35:26;;;;;;;50.73;37.80;;;16.50;99.90;;;;;;4375290;32;20171;-62
2021/07/12 02:37:55;;;;;;;54.73;39.17;;;16.50;99.90;;;;;;4378614;32;20564;-62
2021/07/12 02:40:23;;;;;;;52.73;36.70;;;16.50;99.90;;;;;;4378136;32;20207;-64
2021/07/12 02:42:53;;;;;;;55.40;38.30;;;16.50;99.90;;;;;;4377585;32;20216;-62
2021/07/12 02:45:22;;;;;;;47.23;37.33;;;16.40;99.90;;;;;;4371594;32;20179;-62
2021/07/12 02:47:51;;;;;;;59.63;40.73;;;16.40;99.90;;;;;;4371519;32;20172;-64
2021/07/12 02:50:20;;;;;;;52.90;38.67;;;16.40;99.90;;;;;;4377289;32;20553;-61
2021/07/12 02:52:53;;;;;;;53.67;38.17;;;16.40;99.90;;;;;;4375866;32;20624;-63
2021/07/12 02:55:20;;;;;;;55.47;39.50;;;16.40;99.90;;;;;;4375120;32;20153;-63
2021/07/12 02:57:48;;;;;;;58.43;40.00;;;16.40;99.90;;;;;;4370009;32;20172;-63
2021/07/12 03:00:15;;;;;;;53.73;38.63;;;16.30;99.90;;;;;;4377512;32;20172;-62
2021/07/12 03:02:43;;;;;;;58.93;40.27;;;16.30;99.90;;;;;;4376209;32;20207;-63
2021/07/12 03:05:11;;;;;;;52.47;40.50;;;16.30;99.90;;;;;;4376234;32;20156;-63
2021/07/12 03:07:44;;;;;;;57.17;40.60;;;16.30;99.90;;;;;;4369229;32;20171;-63
2021/07/12 03:10:16;;;;;;;54.03;40.27;;;16.20;99.90;;;;;;4377554;32;20148;-62
2021/07/12 03:12:47;;;;;;;56.93;39.57;;;16.30;99.90;;;;;;4376365;32;20167;-64
2021/07/12 03:15:16;;;;;;;54.77;40.30;;;16.20;99.90;;;;;;4376235;32;20207;-64
2021/07/12 03:17:47;;;;;;;54.30;39.40;;;16.20;99.90;;;;;;4375501;32;20209;-62
2021/07/12 03:20:15;;;;;;;52.63;39.50;;;16.20;99.90;;;;;;4377646;32;20160;-63
2021/07/12 03:22:43;;;;;;;56.70;41.10;;;16.20;99.90;;;;;;4375856;32;20252;-62
2021/07/12 03:25:13;;;;;;;54.50;40.13;;;16.20;99.90;;;;;;4376508;32;20143;-62
2021/07/12 03:27:41;;;;;;;53.87;39.90;;;16.20;99.90;;;;;;4363830;32;20235;-64
2021/07/12 03:30:10;;;;;;;50.63;39.13;;;16.30;99.90;;;;;;4363323;32;20553;-64
2021/07/12 03:32:42;;;;;;;56.10;40.40;;;16.30;99.90;;;;;;4376951;32;20216;-64
2021/07/12 03:35:11;;;;;;;51.13;39.17;;;16.30;99.90;;;;;;4376389;32;20175;-62
2021/07/12 03:37:38;;;;;;;51.77;39.27;;;16.30;99.90;;;;;;4364897;32;20191;-62
2021/07/12 03:40:07;;;;;;;53.40;39.97;;;16.30;99.90;;;;;;4362646;32;20627;-62
2021/07/12 03:42:42;;;;;;;50.73;38.33;;;16.30;99.90;;;;;;4361109;32;20232;-64
2021/07/12 03:45:13;;;;;;;54.27;40.03;;;16.40;99.90;;;;;;4362489;32;20253;-63
2021/07/12 03:47:46;;;;;;;53.07;39.83;;;16.40;99.90;;;;;;4360399;32;20250;-64
2021/07/12 03:50:15;;;;;;;56.37;40.33;;;16.40;99.90;;;;;;4360765;32;20221;-62
2021/07/12 03:52:45;;;;;;;53.30;38.90;;;16.50;99.90;;;;;;4362848;32;20188;-64
2021/07/12 03:55:24;;;;;;;51.57;38.83;;;16.50;99.90;;;;;;4361260;32;20294;-63
2021/07/12 03:57:55;;;;;;;51.43;38.67;;;16.50;99.90;;;;;;4358170;32;20227;-63
2021/07/12 04:00:35;;;;;;;48.33;38.07;;;16.60;99.90;;;;;;4007836;32;11756783;-64
2021/07/12 04:03:05;;;;;;;50.53;38.60;;;16.60;99.90;;;;;;4362956;32;20173;-64
2021/07/12 04:05:32;;;;;;;53.33;40.10;;;16.70;99.90;;;;;;4374972;32;20262;-64
2021/07/12 04:07:59;;;;;;;50.40;39.93;;;16.80;99.90;;;;;;4366787;32;20205;-62
2021/07/12 04:10:26;;;;;;;53.30;40.47;;;16.80;99.90;;;;;;4370434;32;20522;-64
2021/07/12 04:12:53;;;;;;;50.60;38.40;;;16.90;99.90;;;;;;4375609;32;20598;-64
2021/07/12 04:15:19;;;;;;;48.97;37.87;;;16.90;99.90;;;;;;4377457;32;20644;-64
2021/07/12 04:17:49;;;;;;;47.47;37.50;;;16.90;99.90;;;;;;4368068;32;20640;-64
2021/07/12 04:20:19;;;;;;;48.73;38.50;;;17.00;99.90;;;;;;4362733;32;20187;-63
2021/07/12 04:22:46;;;;;;;46.60;36.53;;;17.10;99.90;;;;;;4362581;32;20252;-64
2021/07/12 04:25:14;;;;;;;48.00;36.67;;;17.10;99.90;;;;;;4362641;32;20164;-63
2021/07/12 04:27:42;;;;;;;46.97;37.70;;;17.20;99.90;;;;;;4361747;32;20202;-62
2021/07/12 04:30:10;;;;;;;46.53;36.23;;;17.20;99.90;;;;;;4361297;32;20573;-64
2021/07/12 04:32:37;;;;;;;46.97;37.67;;;17.20;99.90;;;;;;4365339;32;20199;-64
2021/07/12 04:35:05;;;;;;;50.70;39.77;;;17.30;99.90;;;;;;4374218;32;20156;-63
2021/07/12 04:37:33;;;;;;;44.20;36.13;;;17.40;99.90;;;;;;4375146;32;20181;-62
2021/07/12 04:40:01;;;;;;;48.03;35.93;;;17.40;99.90;;;;;;4375504;32;20224;-62
2021/07/12 04:42:29;;;;;;;44.80;36.73;;;17.40;99.90;;;;;;4376178;32;20175;-63
2021/07/12 04:44:56;;;;;;;50.57;39.07;;;17.40;99.90;;;;;;4375632;32;20194;-62
2021/07/12 04:47:23;;;;;;;46.20;36.20;;;17.40;99.90;;;;;;4374635;32;20299;-65
2021/07/12 04:49:51;;;;;;;40.90;33.90;;;17.40;99.90;;;;;;4369373;32;20208;-64
2021/07/12 04:52:17;;;;;;;41.27;33.40;;;17.50;99.90;;;;;;4374221;32;20187;-63
2021/07/12 04:54:46;;;;;;;44.17;36.13;;;17.60;99.90;;;;;;4375140;32;20175;-63
2021/07/12 04:57:12;;;;;;;40.43;33.77;;;17.60;99.90;;;;;;4375809;32;20247;-65
2021/07/12 04:59:40;;;;;;;39.43;33.40;;;17.70;99.90;;;;;;4368494;32;20224;-64
2021/07/12 05:02:07;;;;;;;41.23;33.57;;;17.80;99.90;;;;;;4375231;32;20170;-65
2021/07/12 05:04:34;;;;;;;40.20;33.30;;;17.80;99.90;;;;;;4375534;32;20220;-65
2021/07/12 05:07:01;;;;;;;42.10;33.27;;;18.00;99.90;;;;;;4376071;32;20148;-63
2021/07/12 05:09:28;;;;;;;40.30;33.17;;;18.10;99.90;;;;;;4366192;32;20613;-64
2021/07/12 05:11:57;;;;;;;39.20;33.30;;;18.30;99.90;;;;;;4360604;32;20561;-64
2021/07/12 05:14:25;;;;;;;40.73;31.63;;;18.40;99.90;;;;;;4372917;32;20584;-64
2021/07/12 05:16:52;;;;;;;32.97;29.40;;;18.50;99.90;;;;;;4375594;32;20160;-63
2021/07/12 05:19:19;;;;;;;38.67;31.23;;;18.60;99.90;;;;;;4372875;32;20160;-63
2021/07/12 05:21:46;;;;;;;34.73;30.43;;;18.80;99.90;;;;;;4375543;32;20544;-63
2021/07/12 05:24:15;;;;;;;36.87;31.57;;;18.90;99.90;;;;;;4374556;32;20661;-64
2021/07/12 05:26:41;;;;;;;32.33;27.73;;;19.10;99.90;;;;;;4376499;32;20156;-64
2021/07/12 05:29:09;;;;;;;32.10;27.43;;;19.30;99.90;;;;;;4373248;32;20854;-63
2021/07/12 05:31:37;;;;;;;34.17;28.07;;;19.90;99.90;;;;;;4375381;32;20180;-62
2021/07/12 05:34:03;;;;;;;28.87;25.20;;;20.70;99.90;;;;;;4374185;32;20160;-63
2021/07/12 05:36:31;;;;;;;28.17;25.17;;;21.60;99.90;;;;;;4375657;32;20173;-64
2021/07/12 05:38:58;;;;;;;27.17;24.20;;;22.20;99.90;;;;;;4377423;32;20641;-62
2021/07/12 05:41:25;;;;;;;26.47;23.67;;;23.00;99.90;;;;;;4374852;32;20183;-64
2021/07/12 05:43:52;;;;;;;25.20;22.33;;;24.60;99.90;;;;;;4374528;32;20194;-65
2021/07/12 05:46:20;;;;;;;23.20;20.77;;;26.00;99.90;;;;;;4375352;32;20205;-63
2021/07/12 05:48:47;;;;;;;24.47;22.00;;;26.10;99.90;;;;;;4374390;32;20164;-63
2021/07/12 05:51:14;;;;;;;25.63;21.73;;;25.50;99.80;;;;;;4373609;32;20267;-63
2021/07/12 05:53:40;;;;;;;27.13;22.63;;;24.80;99.90;;;;;;4373864;32;20175;-65
2021/07/12 05:56:07;;;;;;;24.00;21.40;;;24.50;99.90;;;;;;4374312;32;20195;-63
2021/07/12 05:58:34;;;;;;;25.00;22.40;;;24.00;99.90;;;;;;4374344;32;20202;-62
2021/07/12 06:01:01;;;;;;;24.33;21.73;;;23.60;99.90;;;;;;4373571;32;20218;-63
2021/07/12 06:03:29;;;;;;;24.37;21.57;;;23.10;99.90;;;;;;4374772;32;20469;-62
2021/07/12 06:05:56;;;;;;;22.33;19.93;;;22.90;99.90;;;;;;4374150;32;20168;-63
2021/07/12 06:08:26;;;;;;;22.67;20.27;;;22.60;99.90;;;;;;4374653;32;20190;-65
2021/07/12 06:10:53;;;;;;;22.07;19.63;;;22.40;99.90;;;;;;4372845;32;20250;-62
2021/07/12 06:13:20;;;;;;;22.53;20.10;;;22.40;99.90;;;;;;4374825;32;20164;-63
2021/07/12 06:15:47;;;;;;;21.67;19.33;;;22.30;99.90;;;;;;4373079;32;20216;-64
2021/07/12 06:18:15;;;;;;;20.33;18.23;;;22.30;99.90;;;;;;4371206;32;20251;-64
2021/07/12 06:20:44;;;;;;;21.07;18.83;;;22.30;99.90;;;;;;4373926;32;20601;-63
2021/07/12 06:23:11;;;;;;;21.03;18.67;;;22.10;99.90;;;;;;4372876;32;20180;-63
2021/07/12 06:25:38;;;;;;;21.03;18.93;;;22.00;99.90;;;;;;4375765;32;20177;-64
2021/07/12 06:28:06;;;;;;;20.23;18.23;;;21.90;99.90;;;;;;4377958;32;20173;-63
2021/07/12 06:30:36;;;;;;;19.67;17.57;;;21.90;99.90;;;;;;4371646;32;20224;-63
2021/07/12 06:33:03;;;;;;;18.60;16.70;;;21.90;99.90;;;;;;4377418;32;20221;-63
2021/07/12 06:35:29;;;;;;;18.73;16.73;;;21.90;99.90;;;;;;4376985;32;20172;-63
2021/07/12 06:37:58;;;;;;;17.97;16.17;;;21.80;99.90;;;;;;4376027;32;20180;-63
2021/07/12 06:40:25;;;;;;;19.60;17.63;;;21.80;99.90;;;;;;4375593;32;20243;-63
2021/07/12 06:42:51;;;;;;;20.80;16.23;;;21.80;99.90;;;;;;4373431;32;20170;-64
2021/07/12 06:45:20;;;;;;;19.47;17.30;;;21.90;99.90;;;;;;4375636;32;20207;-62
2021/07/12 06:47:48;;;;;;;17.20;15.37;;;21.90;99.90;;;;;;4375655;32;20495;-63
2021/07/12 06:50:15;;;;;;;16.93;15.20;;;21.80;99.90;;;;;;4375797;32;20176;-63
2021/07/12 06:52:42;;;;;;;18.03;16.17;;;21.90;99.90;;;;;;4373302;32;20231;-62
2021/07/12 06:55:12;;;;;;;19.97;16.30;;;21.90;99.90;;;;;;4374628;32;20686;-65
2021/07/12 06:57:39;;;;;;;16.00;14.40;;;22.00;99.90;;;;;;4373322;32;20251;-65
2021/07/12 07:00:09;;;;;;;14.80;13.30;;;22.00;99.90;;;;;;4372815;32;20287;-63
2021/07/12 07:02:36;;;;;;;14.67;13.07;;;22.10;99.90;;;;;;4373599;32;20195;-63
2021/07/12 07:05:04;;;;;;;16.80;14.47;;;22.00;99.90;;;;;;4374121;32;20188;-62
2021/07/12 07:07:31;;;;;;;13.50;12.20;;;22.20;99.90;;;;;;4375209;32;20232;-61
2021/07/12 07:09:58;;;;;;;12.90;11.47;;;22.40;99.90;;;;;;4375501;32;20612;-63
2021/07/12 07:12:27;;;;;;;12.97;11.60;;;22.70;99.90;;;;;;4374089;32;20207;-64
2021/07/12 07:14:54;;;;;;;12.17;11.07;;;23.00;99.90;;;;;;4374285;32;20239;-64
2021/07/12 07:17:21;;;;;;;12.40;11.10;;;23.20;99.90;;;;;;4368998;32;20227;-62
2021/07/12 07:19:48;;;;;;;12.93;9.83;;;23.30;99.90;;;;;;4373476;32;20175;-63
2021/07/12 07:22:16;;;;;;;11.23;9.23;;;23.30;99.90;;;;;;4367962;32;20183;-64
2021/07/12 07:24:43;;;;;;;9.48;8.50;;;23.30;99.90;;;;;;4373156;32;20160;-63
2021/07/12 07:27:10;;;;;;;8.63;7.73;;;23.30;99.90;;;;;;4375603;32;20296;-63
2021/07/12 07:29:39;;;;;;;9.60;8.40;;;23.60;99.90;;;;;;4376439;32;20183;-62
2021/07/12 07:32:07;;;;;;;7.90;6.90;;;24.20;99.90;;;;;;4371760;32;20198;-63
2021/07/12 07:34:35;;;;;;;7.63;6.93;;;24.30;99.90;;;;;;4374562;32;20230;-63
2021/07/12 07:37:02;;;;;;;8.07;7.28;;;24.50;99.40;;;;;;4363789;32;20214;-62
2021/07/12 07:39:29;;;;;;;8.90;8.00;;;24.90;98.70;;;;;;4370862;32;20254;-64
2021/07/12 07:41:58;;;;;;;6.60;6.00;;;25.50;97.80;;;;;;4377555;32;20194;-62
2021/07/12 07:44:25;;;;;;;8.18;6.72;;;25.90;96.80;;;;;;4376795;32;20200;-63
2021/07/12 07:46:53;;;;;;;8.20;7.10;;;25.70;96.60;;;;;;4371689;32;20218;-62
2021/07/12 07:49:20;;;;;;;9.90;8.25;;;26.00;96.80;;;;;;4374052;32;20187;-62
2021/07/12 07:51:49;;;;;;;7.62;6.15;;;26.20;95.80;;;;;;4374117;32;20184;-64
2021/07/12 07:54:16;;;;;;;10.50;8.10;;;26.30;95.90;;;;;;4373394;32;20161;-63
2021/07/12 07:56:46;;;;;;;8.48;7.50;;;26.50;95.30;;;;;;4374920;32;20228;-62
2021/07/12 07:59:14;;;;;;;8.52;7.72;;;26.90;95.50;;;;;;4372628;32;20210;-62
2021/07/12 08:01:41;;;;;;;6.12;5.53;;;27.10;95.20;;;;;;4373987;32;20216;-63
2021/07/12 08:04:09;;;;;;;9.07;8.27;;;27.20;95.20;;;;;;4373508;32;20227;-62
2021/07/12 08:06:36;;;;;;;9.20;8.20;;;27.70;94.40;;;;;;4372817;32;20176;-62
2021/07/12 08:09:03;;;;;;;10.15;9.15;;;27.90;93.60;;;;;;4374443;32;20156;-61
2021/07/12 08:11:32;;;;;;;8.98;8.07;;;27.80;93.70;;;;;;4372605;32;20164;-62
2021/07/12 08:13:59;;;;;;;9.27;8.38;;;28.70;93.10;;;;;;4372783;32;20191;-62
2021/07/12 08:16:26;;;;;;;9.25;7.70;;;31.10;91.40;;;;;;4374052;32;20667;-64
2021/07/12 08:18:53;;;;;;;6.68;6.00;;;35.70;81.90;;;;;;4373213;32;20216;-62
2021/07/12 08:21:22;;;;;;;8.38;7.00;;;40.30;65.80;;;;;;4374498;32;20211;-62
2021/07/12 08:23:49;;;;;;;7.60;6.80;;;43.30;54.30;;;;;;4373745;32;20164;-63
2021/07/12 08:26:19;;;;;;;7.97;7.25;;;44.90;47.20;;;;;;4374179;32;20210;-63
2021/07/12 08:28:45;;;;;;;6.97;6.37;;;45.20;43.60;;;;;;4373706;32;20604;-61
2021/07/12 08:31:12;;;;;;;9.48;6.70;;;45.90;43.50;;;;;;4373393;32;20211;-60
2021/07/12 08:33:40;;;;;;;8.30;7.55;;;46.60;41.10;;;;;;4371816;32;20152;-60
2021/07/12 08:36:07;;;;;;;6.40;5.90;;;47.50;39.30;;;;;;4371795;32;20595;-62
2021/07/12 08:38:36;;;;;;;5.30;4.82;;;44.90;41.00;;;;;;4373220;32;20245;-62
2021/07/12 08:41:03;;;;;;;5.95;5.45;;;46.80;39.50;;;;;;4371519;32;20164;-61
2021/07/12 08:43:33;;;;;;;5.03;4.62;;;49.10;39.30;;;;;;4372667;32;20227;-62
2021/07/12 08:46:00;;;;;;;6.03;5.53;;;51.30;37.90;;;;;;4372501;32;20211;-65
2021/07/12 08:48:29;;;;;;;4.47;4.07;;;52.80;35.30;;;;;;4375329;32;20176;-64
2021/07/12 08:50:56;;;;;;;4.87;4.47;;;54.00;33.70;;;;;;4373379;32;20191;-63
2021/07/12 08:53:23;;;;;;;5.70;5.05;;;54.20;33.20;;;;;;4374349;32;20589;-61
2021/07/12 08:55:51;;;;;;;6.37;4.93;;;52.70;32.90;;;;;;4373802;32;20217;-64
2021/07/12 08:58:22;;;;;;;6.68;4.60;;;51.90;32.60;;;;;;4372951;32;20175;-61
2021/07/12 09:00:53;;;;;;;5.60;4.80;;;48.10;33.70;;;;;;4372868;32;20178;-63
2021/07/12 09:03:27;;;;;;;6.87;6.20;;;45.70;37.80;;;;;;4371041;32;20285;-61
2021/07/12 09:05:57;;;;;;;5.00;4.60;;;47.90;35.70;;;;;;4371897;32;20496;-60
2021/07/12 09:08:42;;;;;;;5.37;4.28;;;49.80;34.60;;;;;;4373283;32;20176;-61
2021/07/12 09:11:19;;;;;;;5.15;4.20;;;51.20;32.90;;;;;;4373361;32;20193;-62
2021/07/12 09:13:55;;;;;;;5.45;4.00;;;51.50;32.50;;;;;;4372443;32;20191;-63
2021/07/12 09:16:38;;;;;;;6.65;5.53;;;50.30;33.20;;;;;;4371807;32;20227;-62
2021/07/12 09:19:10;;;;;;;4.90;4.50;;;47.80;34.00;;;;;;4381495;32;20156;-62
2021/07/12 09:21:40;;;;;;;5.95;5.20;;;46.60;35.10;;;;;;4373016;32;20174;-61
2021/07/12 09:24:39;;;;;;;6.93;5.15;;;47.60;33.90;;;;;;4373759;32;20195;-61
2021/07/12 09:27:10;;;;;;;5.97;5.47;;;45.10;36.50;;;;;;4318202;33;20261;-61
2021/07/12 09:29:40;;;;;;;6.37;4.85;;;42.30;37.00;;;;;;4319192;33;20200;-64
2021/07/12 09:32:09;;;;;;;6.55;5.68;;;40.60;39.80;;;;;;4320538;33;20184;-65
2021/07/12 09:34:37;;;;;;;5.50;4.70;;;42.40;38.70;;;;;;4315783;33;20304;-62
2021/07/12 09:37:05;;;;;;;6.70;6.10;;;45.40;36.30;;;;;;4318554;33;20537;-61
2021/07/12 09:39:37;;;;;;;7.15;5.82;;;44.90;35.50;;;;;;4316172;33;20249;-62
2021/07/12 09:42:09;;;;;;;6.85;4.05;;;43.90;37.40;;;;;;4316675;33;20203;-63
2021/07/12 09:44:37;;;;;;;6.07;5.53;;;45.40;36.50;;;;;;4317700;33;20215;-62
2021/07/12 09:47:07;;;;;;;7.18;6.47;;;42.90;37.40;;;;;;4318271;33;20161;-63
2021/07/12 09:49:35;;;;;;;10.05;9.02;;;40.90;39.20;;;;;;4317480;33;20233;-62
2021/07/12 09:52:05;;;;;;;6.12;5.55;;;41.80;38.60;;;;;;4321900;33;20307;-62
2021/07/12 09:54:35;;;;;;;6.57;5.85;;;42.20;39.00;;;;;;4313961;33;20614;-63
2021/07/12 09:57:10;;;;;;;7.85;7.05;;;40.60;39.30;;;;;;4315508;33;20169;-62
2021/07/12 09:59:51;;;;;;;8.35;7.45;;;37.60;42.20;;;;;;4320028;33;20321;-61
2021/07/12 10:02:21;;;;;;;8.18;7.32;;;35.60;44.20;;;;;;4335247;32;20167;-62
2021/07/12 10:04:48;;;;;;;9.43;8.52;;;34.00;46.40;;;;;;4377968;32;20224;-63
2021/07/12 10:07:15;;;;;;;8.25;7.20;;;32.40;47.90;;;;;;4375625;32;20212;-62
2021/07/12 10:09:42;;;;;;;10.07;7.43;;;31.10;50.00;;;;;;4376940;32;20176;-62
2021/07/12 10:12:11;;;;;;;9.82;8.73;;;30.70;51.30;;;;;;4376882;32;20151;-62
2021/07/12 10:14:39;;;;;;;9.75;8.85;;;30.30;51.90;;;;;;4376251;32;20203;-62
2021/07/12 10:17:09;;;;;;;7.70;6.90;;;30.10;52.50;;;;;;4374491;32;20216;-62
2021/07/12 10:19:36;;;;;;;10.18;9.18;;;29.90;54.10;;;;;;4376623;32;20171;-64
2021/07/12 10:22:04;;;;;;;8.20;7.40;;;29.50;54.30;;;;;;4375638;32;20179;-62
2021/07/12 10:24:36;;;;;;;9.00;7.00;;;29.50;55.80;;;;;;4374496;32;20216;-63
2021/07/12 10:27:04;;;;;;;7.00;6.15;;;29.40;55.40;;;;;;4375763;32;20191;-63
2021/07/12 10:29:34;;;;;;;8.05;7.20;;;29.20;55.60;;;;;;4374418;32;20180;-64
2021/07/12 10:32:11;;;;;;;6.07;5.05;;;28.80;56.20;;;;;;4373964;32;20184;-63
2021/07/12 10:34:41;;;;;;;7.53;6.70;;;28.50;57.30;;;;;;4374640;32;20156;-63
2021/07/12 10:37:16;;;;;;;6.15;5.57;;;28.60;57.70;;;;;;4375868;32;20216;-63
2021/07/12 10:40:10;;;;;;;5.55;5.05;;;28.70;59.10;;;;;;4376437;32;20220;-63
2021/07/12 10:42:55;;;;;;;7.43;5.90;;;28.80;59.50;;;;;;4363213;32;20206;-61
2021/07/12 10:48:36;;;;;;;7.50;5.20;;;28.60;57.20;;;;;;4360454;32;22149;-63
2021/07/12 10:51:28;;;;;;;5.82;5.22;;;28.20;59.20;;;;;;4365411;32;20221;-62
2021/07/12 10:54:00;;;;;;;7.80;4.47;;;28.10;60.00;;;;;;4366507;32;20694;-61
2021/07/12 10:56:47;;;;;;;5.12;4.62;;;27.90;61.10;;;;;;4363332;32;20200;-63
2021/07/12 10:59:35;;;;;;;5.45;4.95;;;27.80;60.50;;;;;;4364989;32;20173;-61
2021/07/12 11:05:17;;;;;;;5.40;4.90;;;28.20;60.30;;;;;;4362839;32;20587;-60
2021/07/12 11:07:46;;;;;;;5.12;4.00;;;27.90;58.70;;;;;;4373791;32;20179;-61
2021/07/12 11:10:28;;;;;;;5.12;3.83;;;27.80;60.60;;;;;;4374401;32;20149;-62
2021/07/12 11:12:59;;;;;;;4.28;3.80;;;28.20;60.50;;;;;;4374438;32;20153;-61
2021/07/12 11:15:31;;;;;;;4.80;4.35;;;28.50;60.20;;;;;;4376640;32;20167;-61
2021/07/12 11:18:10;;;;;;;5.50;5.00;;;28.50;60.60;;;;;;4374243;32;20152;-63
2021/07/12 11:20:45;;;;;;;4.30;3.97;;;28.50;61.10;;;;;;4375565;32;20168;-62
2021/07/12 11:23:49;;;;;;;4.20;3.80;;;28.30;60.40;;;;;;4375028;32;20148;-61
2021/07/12 11:26:37;;;;;;;4.22;3.90;;;28.30;60.50;;;;;;4328479;33;20188;-62
2021/07/12 11:29:14;;;;;;;7.12;5.00;;;28.30;60.60;;;;;;4327865;33;20200;-62
2021/07/12 11:31:42;;;;;;;4.90;4.47;;;28.30;60.60;;;;;;4329178;33;20606;-62
2021/07/12 11:34:16;;;;;;;4.65;4.28;;;28.40;61.80;;;;;;4330507;33;20512;-61
2021/07/12 11:36:56;;;;;;;5.32;4.80;;;28.70;60.80;;;;;;4329911;33;20222;-62
2021/07/12 11:39:24;;;;;;;4.60;4.20;;;29.10;59.60;;;;;;4327909;33;20509;-61
2021/07/12 11:41:52;;;;;;;4.72;4.18;;;29.20;59.90;;;;;;4328945;33;20237;-61
2021/07/12 11:44:20;;;;;;;5.00;4.50;;;29.20;59.70;;;;;;4329116;33;20154;-62
2021/07/12 11:46:47;;;;;;;5.15;4.65;;;29.10;59.70;;;;;;4328769;33;20183;-61
2021/07/12 11:49:17;;;;;;;5.07;4.47;;;28.70;59.40;;;;;;4329976;33;20157;-62
2021/07/12 11:51:51;;;;;;;7.45;5.03;;;28.70;60.50;;;;;;4329464;33;20200;-63
2021/07/12 11:54:19;;;;;;;4.68;3.83;;;29.20;58.50;;;;;;4329559;33;20196;-61
2021/07/12 11:56:58;;;;;;;2.97;2.78;;;29.20;58.20;;;;;;4329034;33;20149;-62
2021/07/12 11:59:29;;;;;;;3.15;2.85;;;29.20;57.90;;;;;;4328086;33;20199;-63
2021/07/12 12:02:04;;;;;;;4.47;3.00;;;29.30;57.30;;;;;;4329322;33;20169;-62
2021/07/12 12:04:51;;;;;;;3.70;3.40;;;29.50;57.20;;;;;;4372863;32;20155;-64
2021/07/12 12:07:22;;;;;;;4.30;3.70;;;29.70;56.10;;;;;;4374961;32;20214;-62
2021/07/12 12:09:50;;;;;;;4.72;3.78;;;29.60;57.80;;;;;;4371851;32;20153;-62
2021/07/12 12:12:25;;;;;;;3.42;3.12;;;29.60;58.00;;;;;;4377963;32;20287;-63
2021/07/12 12:14:57;;;;;;;4.15;3.75;;;29.70;60.00;;;;;;4375742;32;20144;-63
2021/07/12 12:17:28;;;;;;;5.10;3.28;;;29.70;57.70;;;;;;4374445;32;20213;-61
2021/07/12 12:20:15;;;;;;;3.40;3.10;;;29.50;56.70;;;;;;4373411;32;20165;-62
2021/07/12 12:23:01;;;;;;;3.97;3.58;;;29.60;58.70;;;;;;4373821;32;20168;-61
2021/07/12 12:25:31;;;;;;;3.70;3.17;;;29.50;59.00;;;;;;4372749;32;20493;-63
2021/07/12 12:27:58;;;;;;;4.35;3.50;;;29.20;57.30;;;;;;4375389;32;20191;-62
2021/07/12 12:30:25;;;;;;;7.20;4.82;;;28.90;59.50;;;;;;4373708;32;20152;-63
2021/07/12 12:32:56;;;;;;;4.47;4.07;;;28.50;60.00;;;;;;4373155;32;20152;-64
2021/07/12 12:35:27;;;;;;;4.70;3.35;;;28.20;60.70;;;;;;4373670;32;20227;-62
2021/07/12 12:37:55;;;;;;;4.05;3.75;;;27.80;62.20;;;;;;4373575;32;20626;-60
2021/07/12 12:40:24;;;;;;;4.45;4.07;;;27.70;62.40;;;;;;4372321;32;20245;-64
2021/07/12 12:42:53;;;;;;;4.85;4.30;;;27.50;62.50;;;;;;4372622;32;20647;-61
2021/07/12 12:45:29;;;;;;;5.20;4.50;;;27.50;63.10;;;;;;4371084;32;20164;-62
2021/07/12 12:47:58;;;;;;;4.60;4.20;;;27.50;62.40;;;;;;4372308;32;20159;-61
2021/07/12 12:50:28;;;;;;;4.68;4.28;;;27.60;64.00;;;;;;4373452;32;20165;-61
2021/07/12 12:53:06;;;;;;;4.95;4.43;;;27.60;63.50;;;;;;4373135;32;20224;-62
2021/07/12 12:55:36;;;;;;;5.82;5.28;;;27.50;64.10;;;;;;4372167;32;20156;-62
2021/07/12 12:58:13;;;;;;;5.37;4.85;;;27.40;62.90;;;;;;4374789;32;20174;-61